createdAt,value
2018-10-18T00:00:29.260Z,86.56
2018-10-18T00:01:07.292Z,86.98
2018-10-18T00:01:45.109Z,85.85
2018-10-18T00:02:23.156Z,86.48
2018-10-18T00:03:01.565Z,86.68
2018-10-18T00:03:40.855Z,85.73
2018-10-18T00:04:18.773Z,86.62
2018-10-18T00:04:56.600Z,85.53
2018-10-18T00:05:36.015Z,86.76
2018-10-18T00:06:14.067Z,86.37
2018-10-18T00:06:52.029Z,86.30
2018-10-18T00:07:30.053Z,85.33
2018-10-18T00:08:08.434Z,85.68
2018-10-18T00:08:46.361Z,85.11
2018-10-18T00:09:24.329Z,86.00
2018-10-18T00:10:02.646Z,84.83
2018-10-18T00:10:40.562Z,85.35
2018-10-18T00:11:19.973Z,85.58
2018-10-18T00:11:58.718Z,85.59
2018-10-18T00:12:37.624Z,85.51
2018-10-18T00:13:16.235Z,84.46
2018-10-18T00:13:54.135Z,85.01
2018-10-18T00:14:32.260Z,85.41
2018-10-18T00:15:11.256Z,84.84
2018-10-18T00:15:50.892Z,85.58
2018-10-18T00:16:29.198Z,85.09
2018-10-18T00:18:10.815Z,84.15
2018-10-18T00:18:48.789Z,84.99
2018-10-18T00:19:28.152Z,84.64
2018-10-18T00:20:06.172Z,83.87
2018-10-18T00:20:44.786Z,84.63
2018-10-18T00:21:22.724Z,83.35
2018-10-18T00:22:02.320Z,83.28
2018-10-18T00:22:40.175Z,83.66
2018-10-18T00:23:18.052Z,83.39
2018-10-18T00:23:55.983Z,83.98
2018-10-18T00:24:34.361Z,83.33
2018-10-18T00:25:12.481Z,83.91
2018-10-18T00:25:51.265Z,83.13
2018-10-18T00:26:29.408Z,84.05
2018-10-18T00:27:07.404Z,83.82
2018-10-18T00:27:45.597Z,83.10
2018-10-18T00:28:23.505Z,82.95
2018-10-18T00:29:01.530Z,84.09
2018-10-18T00:29:39.363Z,83.51
2018-10-18T00:30:17.844Z,83.73
2018-10-18T00:30:55.941Z,83.18
2018-10-18T00:31:34.077Z,82.51
2018-10-18T00:32:12.165Z,82.91
2018-10-18T00:32:50.223Z,83.22
2018-10-18T00:33:28.274Z,83.13
2018-10-18T00:34:07.809Z,83.10
2018-10-18T00:34:45.781Z,82.52
2018-10-18T00:35:23.732Z,83.69
2018-10-18T00:36:02.235Z,83.47
2018-10-18T00:36:41.405Z,83.15
2018-10-18T00:37:19.296Z,82.16
2018-10-18T00:37:57.193Z,81.89
2018-10-18T00:38:35.160Z,82.71
2018-10-18T00:39:15.570Z,82.43
2018-10-18T00:39:53.504Z,81.94
2018-10-18T00:40:31.417Z,82.27
2018-10-18T00:41:09.596Z,81.74
2018-10-18T00:41:47.543Z,81.32
2018-10-18T00:42:25.574Z,81.01
2018-10-18T00:43:03.717Z,81.08
2018-10-18T00:43:41.601Z,81.56
2018-10-18T00:44:19.503Z,80.73
2018-10-18T00:44:57.546Z,81.76
2018-10-18T00:45:35.475Z,81.51
2018-10-18T00:46:13.351Z,81.45
2018-10-18T00:46:51.342Z,81.86
2018-10-18T00:47:29.197Z,80.61
2018-10-18T00:48:07.227Z,80.89
2018-10-18T00:48:45.208Z,81.03
2018-10-18T00:49:23.965Z,81.97
2018-10-18T00:50:03.677Z,81.22
2018-10-18T00:50:41.603Z,81.95
2018-10-18T00:51:19.543Z,81.74
2018-10-18T00:51:57.466Z,81.82
2018-10-18T00:52:35.368Z,81.03
2018-10-18T00:53:13.295Z,81.85
2018-10-18T00:53:51.212Z,81.29
2018-10-18T00:54:30.161Z,81.08
2018-10-18T00:55:08.505Z,81.48
2018-10-18T00:55:47.345Z,81.90
2018-10-18T00:56:25.419Z,81.38
2018-10-18T00:57:03.832Z,80.86
2018-10-18T00:57:42.376Z,81.24
2018-10-18T00:58:20.309Z,81.69
2018-10-18T00:58:58.265Z,81.47
2018-10-18T00:59:36.140Z,80.32
2018-10-18T01:00:15.337Z,80.81
2018-10-18T01:00:54.172Z,80.85
2018-10-18T01:01:32.076Z,80.63
2018-10-18T01:02:10.219Z,80.89
2018-10-18T01:02:48.835Z,80.39
2018-10-18T01:03:28.639Z,81.01
2018-10-18T01:04:06.974Z,81.79
2018-10-18T01:04:45.513Z,81.87
2018-10-18T01:05:25.187Z,81.61
2018-10-18T01:06:03.188Z,81.53
2018-10-18T01:06:41.733Z,81.07
2018-10-18T01:07:19.893Z,81.26
2018-10-18T01:07:58.220Z,80.55
2018-10-18T01:08:36.521Z,80.58
2018-10-18T01:09:15.496Z,81.37
2018-10-18T01:09:54.003Z,81.46
2018-10-18T01:10:32.365Z,80.82
2018-10-18T01:11:11.104Z,80.61
2018-10-18T01:11:48.978Z,80.17
2018-10-18T01:12:26.911Z,80.46
2018-10-18T01:13:05.177Z,80.26
2018-10-18T01:13:43.119Z,80.89
2018-10-18T01:14:21.966Z,81.17
2018-10-18T01:15:00.285Z,80.71
2018-10-18T01:15:38.709Z,80.67
2018-10-18T01:16:18.469Z,81.71
2018-10-18T01:17:05.799Z,80.89
2018-10-18T01:17:44.822Z,81.51
2018-10-18T01:18:22.795Z,80.64
2018-10-18T01:19:00.788Z,81.96
2018-10-18T01:19:40.309Z,81.57
2018-10-18T01:20:18.321Z,81.48
2018-10-18T01:20:56.322Z,81.22
2018-10-18T01:21:34.294Z,80.31
2018-10-18T01:22:12.338Z,81.73
2018-10-18T01:22:50.366Z,81.54
2018-10-18T01:23:28.365Z,81.61
2018-10-18T01:24:07.254Z,81.17
2018-10-18T01:24:45.369Z,80.76
2018-10-18T01:25:23.272Z,81.70
2018-10-18T01:26:03.187Z,80.97
2018-10-18T01:26:41.141Z,81.74
2018-10-18T01:27:19.317Z,80.98
2018-10-18T01:27:57.394Z,81.62
2018-10-18T01:28:36.502Z,81.45
2018-10-18T01:29:14.452Z,82.03
2018-10-18T01:29:52.733Z,81.24
2018-10-18T01:30:30.636Z,81.30
2018-10-18T01:31:09.001Z,82.00
2018-10-18T01:31:46.941Z,81.26
2018-10-18T01:32:24.920Z,80.97
2018-10-18T01:33:02.759Z,81.76
2018-10-18T01:33:40.950Z,80.87
2018-10-18T01:34:18.908Z,81.23
2018-10-18T01:34:57.257Z,80.72
2018-10-18T01:35:35.331Z,81.29
2018-10-18T01:36:13.324Z,80.90
2018-10-18T01:36:51.391Z,81.21
2018-10-18T01:37:29.248Z,81.70
2018-10-18T01:38:07.624Z,81.45
2018-10-18T01:38:45.653Z,81.56
2018-10-18T01:39:23.656Z,82.33
2018-10-18T01:40:02.975Z,82.44
2018-10-18T01:40:40.939Z,82.77
2018-10-18T01:41:19.133Z,81.68
2018-10-18T01:41:57.248Z,81.37
2018-10-18T01:42:35.484Z,81.80
2018-10-18T01:43:13.745Z,82.16
2018-10-18T01:43:52.254Z,82.05
2018-10-18T01:44:31.580Z,82.23
2018-10-18T01:45:10.959Z,81.51
2018-10-18T01:45:49.203Z,82.05
2018-10-18T01:46:27.432Z,81.46
2018-10-18T01:47:05.652Z,81.51
2018-10-18T01:47:43.675Z,81.79
2018-10-18T01:48:21.855Z,81.33
2018-10-18T01:48:59.726Z,81.93
2018-10-18T01:49:37.631Z,82.61
2018-10-18T01:50:15.683Z,81.83
2018-10-18T01:50:53.672Z,82.55
2018-10-18T01:51:31.862Z,81.43
2018-10-18T01:52:10.743Z,81.71
2018-10-18T01:52:48.836Z,81.39
2018-10-18T01:53:27.108Z,82.15
2018-10-18T01:54:05.353Z,81.72
2018-10-18T01:54:43.264Z,81.81
2018-10-18T01:55:21.489Z,81.26
2018-10-18T01:55:59.419Z,81.39
2018-10-18T01:56:38.296Z,81.97
2018-10-18T01:57:16.249Z,82.12
2018-10-18T01:57:54.224Z,80.84
2018-10-18T01:58:32.055Z,81.82
2018-10-18T01:59:10.047Z,81.12
2018-10-18T01:59:47.973Z,82.41
2018-10-18T02:00:25.923Z,80.61
2018-10-18T02:01:04.441Z,80.63
2018-10-18T02:01:42.674Z,81.67
2018-10-18T02:02:20.614Z,80.40
2018-10-18T02:02:58.660Z,80.87
2018-10-18T02:03:37.186Z,80.54
2018-10-18T02:04:15.752Z,80.13
2018-10-18T02:04:53.554Z,79.94
2018-10-18T02:05:31.741Z,79.15
2018-10-18T02:06:09.963Z,78.62
2018-10-18T02:06:48.053Z,78.13
2018-10-18T02:07:26.009Z,78.35
2018-10-18T02:08:04.009Z,78.55
2018-10-18T02:08:42.480Z,77.79
2018-10-18T02:09:20.325Z,77.59
2018-10-18T02:09:58.219Z,77.79
2018-10-18T02:10:36.164Z,78.72
2018-10-18T02:11:15.260Z,78.48
2018-10-18T02:11:53.160Z,78.42
2018-10-18T02:12:31.123Z,78.23
2018-10-18T02:13:10.084Z,77.98
2018-10-18T02:13:48.110Z,78.83
2018-10-18T02:14:26.129Z,78.72
2018-10-18T02:15:04.223Z,79.01
2018-10-18T02:15:43.253Z,78.39
2018-10-18T02:16:21.145Z,79.33
2018-10-18T02:16:59.461Z,78.41
2018-10-18T02:17:37.306Z,78.36
2018-10-18T02:18:16.040Z,78.84
2018-10-18T02:18:54.169Z,78.42
2018-10-18T02:19:32.123Z,77.83
2018-10-18T02:20:11.825Z,77.50
2018-10-18T02:20:49.717Z,78.51
2018-10-18T02:21:27.666Z,76.99
2018-10-18T02:22:05.426Z,77.66
2018-10-18T02:22:43.540Z,76.87
2018-10-18T02:23:21.505Z,77.22
2018-10-18T02:23:59.524Z,77.72
2018-10-18T02:24:37.362Z,76.77
2018-10-18T02:25:16.020Z,77.55
2018-10-18T02:25:54.402Z,76.95
2018-10-18T02:26:32.211Z,76.64
2018-10-18T02:27:11.004Z,76.76
2018-10-18T02:27:48.958Z,77.25
2018-10-18T02:28:26.841Z,76.77
2018-10-18T02:29:05.254Z,77.16
2018-10-18T02:29:43.305Z,76.75
2018-10-18T02:30:21.377Z,76.55
2018-10-18T02:30:59.369Z,76.60
2018-10-18T02:31:37.242Z,76.11
2018-10-18T02:32:15.164Z,75.21
2018-10-18T02:32:53.351Z,75.64
2018-10-18T02:33:31.304Z,76.14
2018-10-18T02:34:09.293Z,74.13
2018-10-18T02:34:47.271Z,74.95
2018-10-18T02:35:25.183Z,73.96
2018-10-18T02:36:03.100Z,73.75
2018-10-18T02:36:40.980Z,74.90
2018-10-18T02:37:18.966Z,74.13
2018-10-18T02:37:56.757Z,73.37
2018-10-18T02:38:34.719Z,74.65
2018-10-18T02:39:16.270Z,73.62
2018-10-18T02:39:54.457Z,73.58
2018-10-18T02:40:32.645Z,74.16
2018-10-18T02:41:14.426Z,73.77
2018-10-18T02:41:52.437Z,73.98
2018-10-18T02:42:30.398Z,74.42
2018-10-18T02:43:08.909Z,73.31
2018-10-18T02:43:46.859Z,74.03
2018-10-18T02:44:25.204Z,74.69
2018-10-18T02:45:03.154Z,74.62
2018-10-18T02:45:40.991Z,73.79
2018-10-18T02:46:19.500Z,74.39
2018-10-18T02:46:58.080Z,74.09
2018-10-18T02:47:36.011Z,73.14
2018-10-18T02:48:14.215Z,73.36
2018-10-18T02:48:52.174Z,73.45
2018-10-18T02:49:30.037Z,73.92
2018-10-18T02:50:08.888Z,73.64
2018-10-18T02:50:46.795Z,72.86
2018-10-18T02:51:24.748Z,73.68
2018-10-18T02:52:02.718Z,72.89
2018-10-18T02:52:40.697Z,74.19
2018-10-18T02:53:19.029Z,73.27
2018-10-18T02:53:57.039Z,73.01
2018-10-18T02:54:34.967Z,73.43
2018-10-18T02:55:12.876Z,73.26
2018-10-18T02:55:50.803Z,73.52
2018-10-18T02:56:28.656Z,73.99
2018-10-18T02:57:06.530Z,73.60
2018-10-18T02:57:44.426Z,74.42
2018-10-18T02:58:22.272Z,73.42
2018-10-18T02:59:00.336Z,74.01
2018-10-18T02:59:38.228Z,72.74
2018-10-18T03:00:16.236Z,73.86
2018-10-18T03:00:54.208Z,73.41
2018-10-18T03:01:32.055Z,73.56
2018-10-18T03:02:10.946Z,73.20
2018-10-18T03:02:49.054Z,72.75
2018-10-18T03:03:27.031Z,73.85
2018-10-18T03:04:04.994Z,73.47
2018-10-18T03:04:42.957Z,73.32
2018-10-18T03:05:23.098Z,73.60
2018-10-18T03:06:01.967Z,73.70
2018-10-18T03:06:39.873Z,73.60
2018-10-18T03:07:17.736Z,73.22
2018-10-18T03:07:55.722Z,73.42
2018-10-18T03:08:33.511Z,73.10
2018-10-18T03:09:14.122Z,73.69
2018-10-18T03:09:52.136Z,72.74
2018-10-18T03:10:29.969Z,73.17
2018-10-18T03:11:08.312Z,74.32
2018-10-18T03:11:46.419Z,74.33
2018-10-18T03:12:24.669Z,74.46
2018-10-18T03:13:02.708Z,73.76
2018-10-18T03:13:40.673Z,73.48
2018-10-18T03:14:18.595Z,73.59
2018-10-18T03:14:56.481Z,73.40
2018-10-18T03:15:34.419Z,73.96
2018-10-18T03:16:12.570Z,74.20
2018-10-18T03:16:50.579Z,74.27
2018-10-18T03:17:28.667Z,75.14
2018-10-18T03:18:06.724Z,74.30
2018-10-18T03:18:44.561Z,74.60
2018-10-18T03:19:22.533Z,74.97
2018-10-18T03:20:00.333Z,73.69
2018-10-18T03:20:38.250Z,74.74
2018-10-18T03:21:16.175Z,74.30
2018-10-18T03:21:54.133Z,74.86
2018-10-18T03:22:32.053Z,74.75
2018-10-18T03:23:10.321Z,74.73
2018-10-18T03:23:48.311Z,74.35
2018-10-18T03:24:26.249Z,73.90
2018-10-18T03:25:04.183Z,74.26
2018-10-18T03:25:42.033Z,74.07
2018-10-18T03:26:19.912Z,75.04
2018-10-18T03:26:57.891Z,74.83
2018-10-18T03:27:35.965Z,74.82
2018-10-18T03:28:14.834Z,74.88
2018-10-18T03:28:52.721Z,75.76
2018-10-18T03:29:30.688Z,75.52
2018-10-18T03:30:08.881Z,75.54
2018-10-18T03:30:46.825Z,75.67
2018-10-18T03:31:24.688Z,75.76
2018-10-18T03:32:02.645Z,74.01
2018-10-18T03:32:40.641Z,74.19
2018-10-18T03:33:18.534Z,73.76
2018-10-18T03:33:56.470Z,74.34
2018-10-18T03:34:34.461Z,73.36
2018-10-18T03:35:12.561Z,73.08
2018-10-18T03:35:51.103Z,73.03
2018-10-18T03:36:29.005Z,73.60
2018-10-18T03:37:07.666Z,72.99
2018-10-18T03:37:45.620Z,72.50
2018-10-18T03:38:23.654Z,72.86
2018-10-18T03:39:01.607Z,72.28
2018-10-18T03:39:39.476Z,72.93
2018-10-18T03:40:17.338Z,73.48
2018-10-18T03:40:55.276Z,72.67
2018-10-18T03:41:33.176Z,73.58
2018-10-18T03:42:11.146Z,72.54
2018-10-18T03:42:49.139Z,72.70
2018-10-18T03:43:27.345Z,73.50
2018-10-18T03:44:05.188Z,73.26
2018-10-18T03:44:43.197Z,74.31
2018-10-18T03:45:21.117Z,73.87
2018-10-18T03:46:00.267Z,74.73
2018-10-18T03:46:38.120Z,74.92
2018-10-18T03:47:16.087Z,75.11
2018-10-18T03:47:54.040Z,74.82
2018-10-18T03:48:31.865Z,75.52
2018-10-18T03:49:09.878Z,74.60
2018-10-18T03:49:47.695Z,74.74
2018-10-18T03:50:25.625Z,75.15
2018-10-18T03:51:03.516Z,75.70
2018-10-18T03:51:41.463Z,75.97
2018-10-18T03:52:19.448Z,76.34
2018-10-18T03:52:57.396Z,75.48
2018-10-18T03:53:35.291Z,76.69
2018-10-18T03:54:13.455Z,76.20
2018-10-18T03:54:51.609Z,76.84
2018-10-18T03:55:29.490Z,77.39
2018-10-18T03:56:07.234Z,77.39
2018-10-18T03:56:45.296Z,78.70
2018-10-18T03:57:23.168Z,79.15
2018-10-18T03:58:01.051Z,78.59
2018-10-18T03:58:39.089Z,78.34
2018-10-18T03:59:17.056Z,79.49
2018-10-18T03:59:54.993Z,79.29
2018-10-18T04:00:33.072Z,78.74
2018-10-18T04:01:11.040Z,78.90
2018-10-18T04:01:49.025Z,79.90
2018-10-18T04:02:26.963Z,79.06
2018-10-18T04:03:04.925Z,79.53
2018-10-18T04:03:43.992Z,79.62
2018-10-18T04:04:21.890Z,79.62
2018-10-18T04:05:01.134Z,79.79
2018-10-18T04:05:39.068Z,80.23
2018-10-18T04:06:18.451Z,79.90
2018-10-18T04:06:57.601Z,80.56
2018-10-18T04:07:35.600Z,81.29
2018-10-18T04:11:14.971Z,80.36
2018-10-18T04:11:53.279Z,80.34
2018-10-18T04:12:31.798Z,79.70
2018-10-18T04:13:10.310Z,80.78
2018-10-18T04:13:48.193Z,80.38
2018-10-18T04:14:26.481Z,80.19
2018-10-18T04:15:04.547Z,80.57
2018-10-18T04:15:42.433Z,80.13
2018-10-18T04:16:20.821Z,80.49
2018-10-18T04:16:58.900Z,79.72
2018-10-18T04:17:37.846Z,79.47
2018-10-18T04:18:15.829Z,79.21
2018-10-18T04:18:53.788Z,79.87
2018-10-18T04:19:31.709Z,78.47
2018-10-18T04:20:10.598Z,78.25
2018-10-18T04:20:48.593Z,78.15
2018-10-18T04:21:27.932Z,78.29
2018-10-18T04:22:05.774Z,78.97
2018-10-18T04:22:43.801Z,79.70
2018-10-18T04:23:32.292Z,78.46
2018-10-18T04:24:10.315Z,77.93
2018-10-18T04:24:48.462Z,78.27
2018-10-18T04:25:26.816Z,78.05
2018-10-18T04:26:05.684Z,78.43
2018-10-18T04:26:43.763Z,78.75
2018-10-18T04:27:21.663Z,78.42
2018-10-18T04:27:59.801Z,78.26
2018-10-18T04:28:37.670Z,78.08
2018-10-18T04:29:15.715Z,78.93
2018-10-18T04:29:53.711Z,79.16
2018-10-18T04:30:31.664Z,79.06
2018-10-18T04:31:09.585Z,78.86
2018-10-18T04:31:47.584Z,78.11
2018-10-18T04:32:25.505Z,78.63
2018-10-18T04:33:03.421Z,78.59
2018-10-18T04:33:41.317Z,79.51
2018-10-18T04:34:19.193Z,79.46
2018-10-18T04:34:57.069Z,78.93
2018-10-18T04:35:35.223Z,79.04
2018-10-18T04:36:13.088Z,80.20
2018-10-18T04:36:51.127Z,79.03
2018-10-18T04:37:29.045Z,80.04
2018-10-18T04:38:06.988Z,80.62
2018-10-18T04:38:44.946Z,80.25
2018-10-18T04:39:22.781Z,80.69
2018-10-18T04:40:00.659Z,80.15
2018-10-18T04:40:39.080Z,80.94
2018-10-18T04:41:16.901Z,82.58
2018-10-18T04:41:54.950Z,83.60
2018-10-18T04:42:33.063Z,82.41
2018-10-18T04:43:11.833Z,82.66
2018-10-18T04:43:49.713Z,83.98
2018-10-18T04:44:27.846Z,83.16
2018-10-18T04:45:06.227Z,83.58
2018-10-18T04:45:47.290Z,82.62
2018-10-18T04:46:25.259Z,83.60
2018-10-18T04:47:03.152Z,82.32
2018-10-18T04:47:41.176Z,83.39
2018-10-18T04:48:19.261Z,82.82
2018-10-18T04:48:57.211Z,83.19
2018-10-18T04:49:35.108Z,83.26
2018-10-18T04:50:13.256Z,85.00
2018-10-18T04:50:51.089Z,84.45
2018-10-18T04:51:28.872Z,83.58
2018-10-18T04:52:06.763Z,83.86
2018-10-18T04:52:44.663Z,84.69
2018-10-18T04:53:22.577Z,83.27
2018-10-18T04:54:00.440Z,83.09
2018-10-18T04:54:39.113Z,83.84
2018-10-18T04:55:17.703Z,83.64
2018-10-18T04:55:57.289Z,83.54
2018-10-18T04:56:35.087Z,84.31
2018-10-18T04:57:14.520Z,83.89
2018-10-18T04:57:52.303Z,84.28
2018-10-18T04:58:31.604Z,83.80
2018-10-18T04:59:09.630Z,83.94
2018-10-18T04:59:47.890Z,83.57
2018-10-18T05:00:26.192Z,83.95
2018-10-18T05:01:04.608Z,84.20
2018-10-18T05:01:43.788Z,83.84
2018-10-18T05:02:21.698Z,84.22
2018-10-18T05:03:01.437Z,83.34
2018-10-18T05:03:39.645Z,84.31
2018-10-18T05:04:17.807Z,83.86
2018-10-18T05:06:05.001Z,84.44
2018-10-18T05:06:43.717Z,83.82
2018-10-18T05:07:22.142Z,84.32
2018-10-18T05:08:00.552Z,83.83
2018-10-18T05:08:40.833Z,84.05
2018-10-18T05:09:20.342Z,85.06
2018-10-18T05:09:58.947Z,85.24
2018-10-18T05:10:36.901Z,84.39
2018-10-18T05:11:15.160Z,84.65
2018-10-18T05:11:55.134Z,84.86
2018-10-18T05:12:33.517Z,84.06
2018-10-18T05:13:12.265Z,83.66
2018-10-18T05:13:52.266Z,83.29
2018-10-18T05:14:30.759Z,84.47
2018-10-18T05:15:10.267Z,84.03
2018-10-18T05:15:48.576Z,84.46
2018-10-18T05:16:28.343Z,83.10
2018-10-18T05:17:06.777Z,83.63
2018-10-18T05:17:45.589Z,83.03
2018-10-18T05:18:25.254Z,82.61
2018-10-18T05:19:03.293Z,82.62
2018-10-18T05:19:42.643Z,82.83
2018-10-18T05:20:21.744Z,83.55
2018-10-18T05:21:00.340Z,83.58
2018-10-18T05:21:38.759Z,83.28
2018-10-18T05:22:16.732Z,83.12
2018-10-18T05:22:55.391Z,82.86
2018-10-18T05:23:33.340Z,81.62
2018-10-18T05:24:11.985Z,81.79
2018-10-18T05:24:50.893Z,81.57
2018-10-18T05:25:29.300Z,82.00
2018-10-18T05:26:08.181Z,81.73
2018-10-18T05:26:46.078Z,81.79
2018-10-18T05:27:24.101Z,80.99
2018-10-18T05:28:02.308Z,80.10
2018-10-18T05:28:40.620Z,80.91
2018-10-18T05:29:19.157Z,79.81
2018-10-18T05:29:57.863Z,80.21
2018-10-18T05:30:36.368Z,80.21
2018-10-18T05:31:14.654Z,79.96
2018-10-18T05:31:52.711Z,80.81
2018-10-18T05:32:31.229Z,80.88
2018-10-18T05:33:09.564Z,80.38
2018-10-18T05:33:47.984Z,79.79
2018-10-18T05:34:25.937Z,80.01
2018-10-18T05:35:05.192Z,79.95
2018-10-18T05:35:43.051Z,79.57
2018-10-18T05:36:21.490Z,79.25
2018-10-18T05:37:00.199Z,79.87
2018-10-18T05:37:38.244Z,78.93
2018-10-18T05:38:16.668Z,79.45
2018-10-18T05:38:55.082Z,79.71
2018-10-18T05:39:33.005Z,79.47
2018-10-18T05:40:12.311Z,78.79
2018-10-18T05:40:50.243Z,78.26
2018-10-18T05:41:28.585Z,78.61
2018-10-18T05:42:06.430Z,77.90
2018-10-18T05:42:44.317Z,77.68
2018-10-18T05:43:25.136Z,78.23
2018-10-18T05:44:03.248Z,77.65
2018-10-18T05:44:41.319Z,77.17
2018-10-18T05:45:19.405Z,77.72
2018-10-18T05:45:59.318Z,77.45
2018-10-18T05:46:37.705Z,77.18
2018-10-18T05:47:15.722Z,75.94
2018-10-18T05:47:54.725Z,76.24
2018-10-18T05:48:33.074Z,75.34
2018-10-18T05:49:11.397Z,75.72
2018-10-18T05:49:49.683Z,76.50
2018-10-18T05:50:27.814Z,76.85
2018-10-18T05:51:05.879Z,76.70
2018-10-18T05:51:44.002Z,76.27
2018-10-18T05:52:22.201Z,75.92
2018-10-18T05:53:00.405Z,75.95
2018-10-18T05:53:39.486Z,75.67
2018-10-18T05:54:17.462Z,75.54
2018-10-18T05:54:55.392Z,74.74
2018-10-18T05:55:33.433Z,74.59
2018-10-18T05:56:11.396Z,74.23
2018-10-18T05:56:49.269Z,74.21
2018-10-18T05:57:27.635Z,73.86
2018-10-18T05:58:05.612Z,73.98
2018-10-18T05:58:44.081Z,73.60
2018-10-18T05:59:22.194Z,73.11
2018-10-18T06:00:00.195Z,73.22
2018-10-18T06:00:38.465Z,73.20
2018-10-18T06:01:16.393Z,73.09
2018-10-18T06:01:55.329Z,73.43
2018-10-18T06:02:33.323Z,74.24
2018-10-18T06:03:11.429Z,72.43
2018-10-18T06:03:49.306Z,71.48
2018-10-18T06:04:27.230Z,71.60
2018-10-18T06:05:07.195Z,72.03
2018-10-18T06:05:45.151Z,72.29
2018-10-18T06:06:23.153Z,72.08
2018-10-18T06:07:01.129Z,71.90
2018-10-18T06:07:39.267Z,71.86
2018-10-18T06:08:17.305Z,71.86
2018-10-18T06:08:55.435Z,72.18
2018-10-18T06:09:34.912Z,72.05
2018-10-18T06:10:22.354Z,72.32
2018-10-18T06:11:09.407Z,72.36
2018-10-18T06:11:47.378Z,72.84
2018-10-18T06:12:26.164Z,72.95
2018-10-18T06:13:04.405Z,72.52
2018-10-18T06:13:42.433Z,72.71
2018-10-18T06:14:20.839Z,72.38
2018-10-18T06:14:58.759Z,72.25
2018-10-18T06:15:37.988Z,72.85
2018-10-18T06:16:16.232Z,72.51
2018-10-18T06:16:54.150Z,71.82
2018-10-18T06:17:32.576Z,71.38
2018-10-18T06:18:12.445Z,71.45
2018-10-18T06:18:50.509Z,70.74
2018-10-18T06:19:28.617Z,69.53
2018-10-18T06:20:06.625Z,68.55
2018-10-18T06:20:44.568Z,69.01
2018-10-18T06:21:22.960Z,68.62
2018-10-18T06:22:00.989Z,68.53
2018-10-18T06:22:39.041Z,68.48
2018-10-18T06:23:17.398Z,68.80
2018-10-18T06:23:55.349Z,69.08
2018-10-18T06:24:33.354Z,69.60
2018-10-18T06:25:12.255Z,70.14
2018-10-18T06:25:50.209Z,68.92
2018-10-18T06:26:32.510Z,68.40
2018-10-18T06:27:10.424Z,68.26
2018-10-18T06:27:48.882Z,68.53
2018-10-18T06:28:26.907Z,67.67
2018-10-18T06:29:06.245Z,68.50
2018-10-18T06:29:44.662Z,68.36
2018-10-18T06:30:23.109Z,67.93
2018-10-18T06:31:01.399Z,68.09
2018-10-18T06:31:39.421Z,67.45
2018-10-18T06:32:17.357Z,66.92
2018-10-18T06:32:55.308Z,66.33
2018-10-18T06:33:33.359Z,65.45
2018-10-18T06:34:11.539Z,64.91
2018-10-18T06:34:49.420Z,65.02
2018-10-18T06:35:27.508Z,65.09
2018-10-18T06:36:05.549Z,64.85
2018-10-18T06:36:43.413Z,65.07
2018-10-18T06:37:21.880Z,65.17
2018-10-18T06:38:00.224Z,64.52
2018-10-18T06:38:38.373Z,63.91
2018-10-18T06:39:16.272Z,64.40
2018-10-18T06:39:54.285Z,65.58
2018-10-18T06:40:32.238Z,65.67
2018-10-18T06:41:11.050Z,65.53
2018-10-18T06:41:49.107Z,66.05
2018-10-18T06:42:27.010Z,66.32
2018-10-18T06:43:05.111Z,65.94
2018-10-18T06:43:43.867Z,65.66
2018-10-18T06:44:21.898Z,65.88
2018-10-18T06:45:00.402Z,66.04
2018-10-18T06:45:38.547Z,65.86
2018-10-18T06:46:16.903Z,67.06
2018-10-18T06:46:55.435Z,66.92
2018-10-18T06:47:34.120Z,67.06
2018-10-18T06:48:12.134Z,67.00
2018-10-18T06:48:50.410Z,65.95
2018-10-18T06:49:28.494Z,66.33
2018-10-18T06:50:06.561Z,66.91
2018-10-18T06:50:44.516Z,66.29
2018-10-18T06:51:22.654Z,66.19
2018-10-18T06:52:00.628Z,66.08
2018-10-18T06:52:38.581Z,66.45
2018-10-18T06:53:17.216Z,66.26
2018-10-18T06:53:55.132Z,66.19
2018-10-18T06:54:33.049Z,66.35
2018-10-18T06:55:11.098Z,66.57
2018-10-18T06:55:49.053Z,66.82
2018-10-18T06:56:27.345Z,66.79
2018-10-18T06:57:05.696Z,66.66
2018-10-18T06:57:44.502Z,66.92
2018-10-18T06:58:22.356Z,67.31
2018-10-18T06:59:00.452Z,67.24
2018-10-18T06:59:38.388Z,67.50
2018-10-18T07:00:19.753Z,67.34
2018-10-18T07:00:58.424Z,67.77
2018-10-18T07:01:36.767Z,68.81
2018-10-18T07:02:15.043Z,68.21
2018-10-18T07:02:53.401Z,67.02
2018-10-18T07:03:31.683Z,67.09
2018-10-18T07:04:10.927Z,67.33
2018-10-18T07:04:49.023Z,66.84
2018-10-18T07:05:27.522Z,66.96
2018-10-18T07:06:05.636Z,67.69
2018-10-18T07:06:43.678Z,68.33
2018-10-18T07:07:21.880Z,68.47
2018-10-18T07:08:00.047Z,68.69
2018-10-18T07:08:37.938Z,68.73
2018-10-18T07:09:16.824Z,67.98
2018-10-18T07:09:54.744Z,67.86
2018-10-18T07:10:33.686Z,67.96
2018-10-18T07:11:11.725Z,68.09
2018-10-18T07:11:49.849Z,67.69
2018-10-18T07:12:27.732Z,67.27
2018-10-18T07:13:05.850Z,67.19
2018-10-18T07:13:43.845Z,67.62
2018-10-18T07:14:22.876Z,67.83
2018-10-18T07:15:00.904Z,68.01
2018-10-18T07:15:38.819Z,67.79
2018-10-18T07:16:16.841Z,67.78
2018-10-18T07:16:54.902Z,67.71
2018-10-18T07:17:33.088Z,67.31
2018-10-18T07:18:11.044Z,66.78
2018-10-18T07:18:48.947Z,66.51
2018-10-18T07:19:26.840Z,66.82
2018-10-18T07:20:04.709Z,67.45
2018-10-18T07:20:42.576Z,67.52
2018-10-18T07:21:20.591Z,67.18
2018-10-18T07:21:58.990Z,67.21
2018-10-18T07:22:37.420Z,66.85
2018-10-18T07:23:16.036Z,67.30
2018-10-18T07:23:54.003Z,67.80
2018-10-18T07:24:31.856Z,67.43
2018-10-18T07:25:12.846Z,67.24
2018-10-18T07:25:50.799Z,66.48
2018-10-18T07:26:28.778Z,66.55
2018-10-18T07:27:06.882Z,66.35
2018-10-18T07:27:45.189Z,66.69
2018-10-18T07:28:23.104Z,66.25
2018-10-18T07:29:01.064Z,66.33
2018-10-18T07:29:39.039Z,66.38
2018-10-18T07:30:17.768Z,66.14
2018-10-18T07:30:55.982Z,66.40
2018-10-18T07:31:33.912Z,66.74
2018-10-18T07:32:12.032Z,67.35
2018-10-18T07:32:50.269Z,68.01
2018-10-18T07:33:28.149Z,68.16
2018-10-18T07:34:06.525Z,67.64
2018-10-18T07:34:44.545Z,67.68
2018-10-18T07:35:22.519Z,67.37
2018-10-18T07:36:00.503Z,66.82
2018-10-18T07:36:38.606Z,67.06
2018-10-18T07:37:16.528Z,67.17
2018-10-18T07:37:54.522Z,67.59
2018-10-18T07:38:32.528Z,67.80
2018-10-18T07:39:15.378Z,68.12
2018-10-18T07:39:53.254Z,68.22
2018-10-18T07:40:31.315Z,67.96
2018-10-18T07:41:09.408Z,67.88
2018-10-18T07:41:47.582Z,67.13
2018-10-18T07:42:25.497Z,66.42
2018-10-18T07:43:03.544Z,66.57
2018-10-18T07:43:41.424Z,67.53
2018-10-18T07:44:19.292Z,66.91
2018-10-18T07:44:57.281Z,67.36
2018-10-18T07:45:35.145Z,67.82
2018-10-18T07:46:13.124Z,68.08
2018-10-18T07:46:50.975Z,68.43
2018-10-18T07:47:29.153Z,68.53
2018-10-18T07:48:07.119Z,68.95
2018-10-18T07:48:45.221Z,68.79
2018-10-18T07:49:23.523Z,69.14
2018-10-18T07:50:01.998Z,69.37
2018-10-18T07:50:40.681Z,68.81
2018-10-18T07:51:18.860Z,69.27
2018-10-18T07:51:56.788Z,69.27
2018-10-18T07:52:35.253Z,69.34
2018-10-18T07:53:13.532Z,68.98
2018-10-18T07:53:51.628Z,69.11
2018-10-18T07:54:29.576Z,68.86
2018-10-18T07:55:09.706Z,69.22
2018-10-18T07:55:49.627Z,69.06
2018-10-18T07:56:27.612Z,68.54
2018-10-18T07:57:07.256Z,68.12
2018-10-18T07:57:45.106Z,67.46
2018-10-18T07:58:22.998Z,67.35
2018-10-18T07:59:00.971Z,66.94
2018-10-18T07:59:39.006Z,66.86
2018-10-18T08:00:17.897Z,67.01
2018-10-18T08:00:55.976Z,67.14
2018-10-18T08:01:34.126Z,67.09
2018-10-18T08:02:11.988Z,67.13
2018-10-18T08:02:49.869Z,66.97
2018-10-18T08:03:27.748Z,67.43
2018-10-18T08:04:05.723Z,67.56
2018-10-18T08:04:43.689Z,67.81
2018-10-18T08:05:21.578Z,68.22
2018-10-18T08:05:59.557Z,68.37
2018-10-18T08:06:37.527Z,68.38
2018-10-18T08:07:15.620Z,67.78
2018-10-18T08:07:53.593Z,68.08
2018-10-18T08:08:31.510Z,68.24
2018-10-18T08:09:13.938Z,68.00
2018-10-18T08:09:51.820Z,66.97
2018-10-18T08:10:29.744Z,66.78
2018-10-18T08:11:08.217Z,66.93
2018-10-18T08:11:46.241Z,66.93
2018-10-18T08:12:24.326Z,67.21
2018-10-18T08:13:02.308Z,67.00
2018-10-18T08:13:40.263Z,66.94
2018-10-18T08:14:18.488Z,66.86
2018-10-18T08:14:56.603Z,66.89
2018-10-18T08:15:34.795Z,66.70
2018-10-18T08:16:12.689Z,66.46
2018-10-18T08:16:50.910Z,66.63
2018-10-18T08:17:28.970Z,66.73
2018-10-18T08:18:07.013Z,66.73
2018-10-18T08:18:44.864Z,66.76